Main page
METAR-TAF:

METAR-TAF

Airports :

London Southend Airport

London-Southend, England

latitude: 51-34N, longitude: 000-42E, elevation: 15 m

Current weather observation

The report was made 15 minutes ago, at 16:50 UTC
Wind 6 kt from the Southeast
Temperature 4°C
Humidity 100%
Pressure 1017 hPa
Visibility: 6000 m
Overcast at a height of 600 ft

METAR: EGMC 251650Z 13006KT 6000 OVC006 04/04 Q1017

Time: 17:05 (17:05 UTC)

Forecast

The report was made 3 hours and 1 minutes ago, at 14:04 UTC
Forecast valid from 25 at 15 UTC to 25 at 24 UTC
Wind 6 kt from the South/Southeast
Visibility: 6000 m
Broken clouds at a height of 700 ft
Temporary
from 25 at 15 UTC to 25 at 24 UTC
Visibility: 3000 m
Broken clouds at a height of 400 ft
light drizzle, mist

TAF: EGMC 251404Z 2515/2524 15006KT 6000 BKN007 TEMPO 2515/2524 3000 -DZ BR BKN004

Weather observations and forecasts of more than 4000 airports (METAR and TAF reports).

The available stations are represented by yellow and red dots on the map.

Hover mouse over dot to see the name of the station.

Then click to see weather observations and forecasts.

To change the map : click on the green buttons with a black cross to zoom in, on the green button with a dash to zoom out, or on the green arrows for adjacent maps.


METAR-TAF: